createdAt,value
2019-01-28T00:00:00.740Z,33.00
2019-01-28T00:02:09.063Z,30.88
2019-01-28T00:04:14.548Z,23.12
2019-01-28T00:06:18.299Z,28.50
2019-01-28T00:08:26.550Z,28.87
2019-01-28T00:10:30.237Z,26.00
2019-01-28T00:12:34.122Z,24.00
2019-01-28T00:14:38.098Z,20.00
2019-01-28T00:16:41.114Z,20.00
2019-01-28T00:18:49.190Z,20.25
2019-01-28T00:20:54.883Z,17.62
2019-01-28T00:23:00.352Z,20.00
2019-01-28T00:25:06.446Z,20.00
2019-01-28T00:27:14.659Z,21.75
2019-01-28T00:29:17.687Z,14.00
2019-01-28T00:31:25.830Z,19.37
2019-01-28T00:33:34.635Z,19.00
2019-01-28T00:35:42.815Z,19.25
2019-01-28T00:37:48.481Z,17.00
2019-01-28T00:39:52.362Z,18.00
2019-01-28T00:41:58.871Z,20.25
2019-01-28T00:44:02.020Z,16.00
2019-01-28T00:46:05.938Z,18.00
2019-01-28T00:48:09.906Z,19.00
2019-01-28T00:50:13.173Z,17.00
2019-01-28T00:52:21.182Z,21.87
2019-01-28T00:54:26.762Z,17.50
2019-01-28T00:56:34.862Z,18.87
2019-01-28T00:58:38.690Z,18.00
2019-01-28T01:00:42.649Z,15.25
2019-01-28T01:02:50.920Z,17.00
2019-01-28T01:04:55.594Z,16.00
2019-01-28T01:07:03.799Z,14.63
2019-01-28T01:09:07.626Z,13.75
2019-01-28T01:11:14.611Z,19.62
2019-01-28T01:13:20.202Z,17.75
2019-01-28T01:15:24.098Z,18.75
2019-01-28T01:17:30.459Z,19.25
2019-01-28T01:19:37.741Z,16.57
2019-01-28T01:21:40.709Z,19.00
2019-01-28T01:23:47.976Z,18.57
2019-01-28T01:25:55.282Z,15.57
2019-01-28T01:28:11.735Z,15.00
2019-01-28T01:30:16.623Z,16.00
2019-01-28T01:32:20.415Z,15.00
2019-01-28T01:34:26.135Z,14.63
2019-01-28T01:36:29.150Z,15.00
2019-01-28T01:38:33.083Z,19.25
2019-01-28T01:40:38.764Z,19.00
2019-01-28T01:42:44.203Z,15.75
2019-01-28T01:44:47.358Z,15.00
2019-01-28T01:46:52.162Z,16.00
2019-01-28T01:49:00.216Z,15.00
2019-01-28T01:51:04.162Z,16.00
2019-01-28T01:53:13.939Z,16.00
2019-01-28T01:55:17.744Z,16.00
2019-01-28T01:57:23.402Z,17.00
2019-01-28T01:59:27.382Z,15.00
2019-01-28T02:01:31.377Z,17.00
2019-01-28T02:03:34.462Z,17.00
2019-01-28T02:05:42.694Z,19.75
2019-01-28T02:07:50.030Z,17.00
2019-01-28T02:09:55.587Z,16.12
2019-01-28T02:12:01.270Z,19.62
2019-01-28T02:14:06.938Z,18.50
2019-01-28T02:16:11.722Z,17.43
2019-01-28T02:18:19.024Z,16.29
2019-01-28T02:20:22.026Z,15.00
2019-01-28T02:22:29.326Z,17.00
2019-01-28T02:24:33.119Z,19.00
2019-01-28T02:26:36.198Z,23.00
2019-01-28T02:28:39.979Z,17.00
2019-01-28T02:30:48.024Z,17.00
2019-01-28T02:32:53.503Z,17.75
2019-01-28T02:35:04.210Z,16.09
2019-01-28T02:37:07.777Z,15.40
2019-01-28T02:39:10.858Z,16.00
2019-01-28T02:41:14.720Z,19.00
2019-01-28T02:43:18.394Z,15.00
2019-01-28T02:45:22.647Z,17.00
2019-01-28T02:47:26.274Z,16.75
2019-01-28T02:49:30.979Z,13.14
2019-01-28T02:51:36.459Z,16.87
2019-01-28T02:53:39.450Z,14.00
2019-01-28T02:55:43.276Z,15.50
2019-01-28T02:57:48.981Z,24.63
2019-01-28T02:59:52.764Z,20.50
2019-01-28T03:01:59.222Z,15.50
2019-01-28T03:04:07.246Z,14.60
2019-01-28T03:06:11.113Z,16.00
2019-01-28T03:08:16.591Z,18.00
2019-01-28T03:10:21.202Z,23.00
2019-01-28T03:12:26.798Z,15.50
2019-01-28T03:14:32.282Z,17.87
2019-01-28T03:16:35.214Z,17.33
2019-01-28T03:18:43.308Z,17.75
2019-01-28T03:20:46.424Z,14.33
2019-01-28T03:22:51.887Z,14.13
2019-01-28T03:24:58.315Z,16.29
2019-01-28T03:27:06.361Z,24.25
2019-01-28T03:29:10.119Z,22.00
2019-01-28T03:31:14.072Z,23.00
2019-01-28T03:33:22.123Z,26.87
2019-01-28T03:35:28.574Z,20.00
2019-01-28T03:37:37.383Z,26.33
2019-01-28T03:39:45.178Z,23.00
2019-01-28T03:41:53.981Z,28.00
2019-01-28T03:44:03.755Z,24.25
2019-01-28T03:46:09.850Z,25.00
2019-01-28T03:48:13.883Z,29.00
2019-01-28T03:50:22.063Z,28.00
2019-01-28T03:52:26.067Z,29.00
2019-01-28T03:54:33.386Z,31.00
2019-01-28T03:56:40.816Z,33.00
2019-01-28T03:58:47.410Z,32.25
2019-01-28T04:00:53.958Z,31.87
2019-01-28T04:03:01.300Z,32.00
2019-01-28T04:05:10.652Z,31.89
2019-01-28T04:07:16.107Z,32.38
2019-01-28T04:09:24.415Z,31.37
2019-01-28T04:11:31.628Z,34.67
2019-01-28T04:13:40.663Z,36.89
2019-01-28T04:15:48.115Z,37.67
2019-01-28T04:17:55.510Z,34.22
2019-01-28T04:20:03.655Z,34.67
2019-01-28T04:22:12.709Z,35.67
2019-01-28T04:24:17.546Z,39.00
2019-01-28T04:26:26.564Z,35.56
2019-01-28T04:28:33.173Z,34.63
2019-01-28T04:30:42.114Z,34.33
2019-01-28T04:32:49.573Z,37.33
2019-01-28T04:34:57.020Z,35.33
2019-01-28T04:37:12.372Z,35.67
2019-01-28T04:39:19.435Z,35.00
2019-01-28T04:41:23.416Z,35.00
2019-01-28T04:43:32.504Z,36.78
2019-01-28T04:45:39.993Z,37.11
2019-01-28T04:47:47.055Z,35.50
2019-01-28T04:49:54.036Z,32.88
2019-01-28T04:51:57.934Z,33.00
2019-01-28T04:54:04.632Z,34.25
2019-01-28T04:56:11.894Z,34.78
2019-01-28T04:58:19.150Z,36.33
2019-01-28T05:00:29.952Z,31.50
2019-01-28T05:02:36.506Z,33.63
2019-01-28T05:04:42.998Z,34.00
2019-01-28T05:06:49.454Z,33.75
2019-01-28T05:08:56.728Z,33.33
2019-01-28T05:11:04.827Z,34.13
2019-01-28T05:13:13.593Z,35.00
2019-01-28T05:15:20.395Z,34.38
2019-01-28T05:17:30.758Z,31.17
2019-01-28T05:19:37.233Z,30.00
2019-01-28T05:21:43.611Z,33.89
2019-01-28T05:23:51.446Z,30.12
2019-01-28T05:25:55.290Z,28.50
2019-01-28T05:28:03.403Z,30.12
2019-01-28T05:30:10.912Z,39.38
2019-01-28T05:32:16.892Z,31.12
2019-01-28T05:34:24.643Z,30.37
2019-01-28T05:36:28.102Z,34.00
2019-01-28T05:38:36.701Z,33.63
2019-01-28T05:40:44.193Z,32.89
2019-01-28T05:42:50.691Z,30.75
2019-01-28T05:45:00.390Z,33.00
2019-01-28T05:47:07.682Z,31.22
2019-01-28T05:49:14.847Z,31.00
2019-01-28T05:51:21.356Z,33.00
2019-01-28T05:53:27.738Z,29.37
2019-01-28T05:55:31.518Z,30.00
2019-01-28T05:57:35.323Z,31.00
2019-01-28T05:59:43.346Z,31.62
2019-01-28T06:01:47.230Z,29.00
2019-01-28T06:03:57.754Z,31.00
2019-01-28T06:06:05.750Z,28.75
2019-01-28T06:08:09.647Z,31.50
2019-01-28T06:10:14.377Z,28.00
2019-01-28T06:12:20.729Z,28.00
2019-01-28T06:14:24.130Z,32.00
2019-01-28T06:16:28.254Z,28.50
2019-01-28T06:18:35.841Z,29.71
2019-01-28T06:20:39.363Z,29.00
2019-01-28T06:22:43.678Z,30.00
2019-01-28T06:24:51.351Z,30.00
2019-01-28T06:26:55.563Z,28.25
2019-01-28T06:29:01.611Z,31.25
2019-01-28T06:31:05.047Z,33.33
2019-01-28T06:33:13.506Z,29.12
2019-01-28T06:35:17.732Z,31.00
2019-01-28T06:37:25.474Z,26.50
2019-01-28T06:39:28.930Z,30.67
2019-01-28T06:41:34.214Z,27.86
2019-01-28T06:43:38.483Z,30.75
2019-01-28T06:45:41.372Z,28.33
2019-01-28T06:47:47.316Z,32.00
2019-01-28T06:49:58.375Z,25.15
2019-01-28T06:52:01.999Z,28.00
2019-01-28T06:54:08.047Z,33.89
2019-01-28T06:56:17.381Z,35.78
2019-01-28T06:58:20.706Z,32.00
2019-01-28T07:00:28.448Z,30.25
2019-01-28T07:02:32.930Z,31.00
2019-01-28T07:04:40.934Z,29.87
2019-01-28T07:06:47.395Z,28.62
2019-01-28T07:08:51.355Z,30.00
2019-01-28T07:10:59.394Z,31.12
2019-01-28T07:13:03.473Z,28.00
2019-01-28T07:15:13.895Z,30.67
2019-01-28T07:17:23.091Z,29.00
2019-01-28T07:19:30.062Z,30.37
2019-01-28T07:21:33.998Z,27.00
2019-01-28T07:23:42.240Z,28.12
2019-01-28T07:25:46.012Z,33.00
2019-01-28T07:27:49.881Z,27.75
2019-01-28T07:29:56.319Z,32.13
2019-01-28T07:32:04.533Z,28.12
2019-01-28T07:34:12.399Z,31.89
2019-01-28T07:36:20.446Z,30.62
2019-01-28T07:38:24.414Z,28.00
2019-01-28T07:40:32.632Z,34.25
2019-01-28T07:42:40.686Z,29.63
2019-01-28T07:44:46.161Z,30.37
2019-01-28T07:46:54.102Z,32.50
2019-01-28T07:49:02.211Z,27.75
2019-01-28T07:51:10.414Z,27.25
2019-01-28T07:53:16.709Z,28.33
2019-01-28T07:55:20.699Z,28.00
2019-01-28T07:57:31.241Z,29.42
2019-01-28T07:59:37.638Z,29.75
2019-01-28T08:01:45.671Z,29.25
2019-01-28T08:03:52.362Z,29.00
2019-01-28T08:05:55.435Z,29.00
2019-01-28T08:08:01.826Z,30.37
2019-01-28T08:10:09.950Z,29.75
2019-01-28T08:12:18.210Z,34.13
2019-01-28T08:14:25.444Z,30.67
2019-01-28T08:16:31.914Z,33.13
2019-01-28T08:18:38.326Z,32.63
2019-01-28T08:20:46.671Z,33.63
2019-01-28T08:22:57.118Z,34.50
2019-01-28T08:25:06.790Z,31.62
2019-01-28T08:27:14.243Z,33.33
2019-01-28T08:29:20.715Z,34.00
2019-01-28T08:31:28.822Z,31.75
2019-01-28T08:33:37.791Z,34.00
2019-01-28T08:35:46.742Z,33.78
2019-01-28T08:37:54.075Z,34.00
2019-01-28T08:40:04.607Z,35.38
2019-01-28T08:42:13.610Z,32.67
2019-01-28T08:44:20.036Z,33.75
2019-01-28T08:46:30.208Z,34.38
2019-01-28T08:48:34.583Z,34.13
2019-01-28T08:50:41.755Z,33.00
2019-01-28T08:52:49.387Z,34.00
2019-01-28T08:54:59.827Z,34.00
2019-01-28T08:57:06.314Z,33.88
2019-01-28T08:59:17.058Z,74.00
2019-01-28T09:01:26.666Z,44.33
2019-01-28T09:03:35.112Z,94.27
2019-01-28T09:05:45.076Z,51.36
2019-01-28T09:07:52.620Z,43.00
2019-01-28T09:10:01.840Z,37.67
2019-01-28T09:12:16.395Z,79.67
2019-01-28T09:14:38.474Z,127.78
2019-01-28T09:16:42.431Z,72.60
2019-01-28T09:18:53.665Z,42.40
2019-01-28T09:21:00.058Z,31.62
2019-01-28T09:23:07.558Z,34.00
2019-01-28T09:25:15.871Z,31.25
2019-01-28T09:27:22.679Z,33.00
2019-01-28T09:29:29.887Z,32.56
2019-01-28T09:31:36.412Z,31.37
2019-01-28T09:33:51.628Z,78.68
2019-01-28T09:36:06.243Z,122.62
2019-01-28T09:38:11.581Z,47.71
2019-01-28T09:40:25.548Z,48.67
2019-01-28T09:42:36.607Z,44.40
2019-01-28T09:44:45.482Z,36.67
2019-01-28T09:46:55.208Z,34.89
2019-01-28T09:49:01.707Z,34.00
2019-01-28T09:51:08.951Z,33.67
2019-01-28T09:53:17.947Z,36.89
2019-01-28T09:55:26.826Z,35.00
2019-01-28T09:57:34.110Z,36.71
2019-01-28T09:59:41.466Z,35.00
2019-01-28T10:01:52.207Z,36.75
2019-01-28T10:03:59.409Z,35.22
2019-01-28T10:06:07.668Z,33.40
2019-01-28T10:08:17.458Z,36.22
2019-01-28T10:10:24.853Z,34.67
2019-01-28T10:12:34.552Z,32.88
2019-01-28T10:14:41.072Z,32.25
2019-01-28T10:16:48.329Z,33.56
2019-01-28T10:18:56.594Z,32.00
2019-01-28T10:21:04.899Z,38.25
2019-01-28T10:23:12.552Z,35.00
2019-01-28T10:25:21.148Z,36.89
2019-01-28T10:27:28.294Z,35.67
2019-01-28T10:29:36.441Z,32.00
2019-01-28T10:31:42.834Z,33.25
2019-01-28T10:33:52.112Z,38.89
2019-01-28T10:35:59.356Z,34.00
2019-01-28T10:38:06.143Z,34.75
2019-01-28T10:40:18.308Z,35.25
2019-01-28T10:42:27.583Z,34.00
2019-01-28T10:44:36.635Z,34.44
2019-01-28T10:46:43.346Z,34.63
2019-01-28T10:48:49.972Z,37.13
2019-01-28T10:50:58.277Z,38.89
2019-01-28T10:53:03.904Z,34.00
2019-01-28T10:55:13.923Z,37.89
2019-01-28T10:57:21.749Z,34.33
2019-01-28T10:59:29.019Z,35.33
2019-01-28T11:01:37.408Z,34.00
2019-01-28T11:03:44.103Z,33.13
2019-01-28T11:05:52.240Z,34.00
2019-01-28T11:08:00.231Z,34.88
2019-01-28T11:10:08.958Z,33.67
2019-01-28T11:12:16.347Z,39.00
2019-01-28T11:14:25.532Z,41.11
2019-01-28T11:16:36.113Z,34.33
2019-01-28T11:18:39.899Z,33.50
2019-01-28T11:20:46.554Z,34.00
2019-01-28T11:22:54.834Z,39.13
2019-01-28T11:25:06.286Z,36.89
2019-01-28T11:27:13.794Z,39.67
2019-01-28T11:29:22.655Z,37.00
2019-01-28T11:31:30.125Z,45.00
2019-01-28T11:33:39.568Z,34.00
2019-01-28T11:35:47.893Z,40.11
2019-01-28T11:37:55.564Z,38.11
2019-01-28T11:40:02.705Z,41.25
2019-01-28T11:42:12.868Z,43.33
2019-01-28T11:44:20.396Z,39.11
2019-01-28T11:46:28.635Z,43.89
2019-01-28T11:48:37.667Z,40.11
2019-01-28T11:50:46.664Z,46.36
2019-01-28T11:52:54.378Z,35.00
2019-01-28T11:55:00.868Z,35.25
2019-01-28T11:57:10.031Z,46.63
2019-01-28T11:59:19.872Z,45.22
2019-01-28T12:01:27.252Z,40.67
2019-01-28T12:03:34.532Z,36.67
2019-01-28T12:05:41.870Z,43.11
2019-01-28T12:07:49.596Z,38.78
2019-01-28T12:09:59.042Z,39.00
2019-01-28T12:12:07.350Z,37.63
2019-01-28T12:14:15.591Z,34.25
2019-01-28T12:16:23.023Z,38.00
2019-01-28T12:18:30.178Z,46.00
2019-01-28T12:20:39.541Z,38.13
2019-01-28T12:22:48.493Z,39.67
2019-01-28T12:24:58.363Z,46.67
2019-01-28T12:27:06.604Z,50.56
2019-01-28T12:29:14.839Z,50.44
2019-01-28T12:31:24.814Z,41.78
2019-01-28T12:33:32.209Z,44.67
2019-01-28T12:35:40.406Z,39.00
2019-01-28T12:37:50.262Z,40.33
2019-01-28T12:39:56.730Z,38.00
2019-01-28T12:42:06.644Z,44.78
2019-01-28T12:44:16.238Z,42.00
2019-01-28T12:46:24.417Z,42.10
2019-01-28T12:48:31.899Z,46.00
2019-01-28T12:50:40.570Z,43.11
2019-01-28T12:52:49.576Z,40.63
2019-01-28T12:54:54.263Z,42.50
2019-01-28T12:56:59.018Z,43.75
2019-01-28T12:59:09.428Z,40.89
2019-01-28T13:01:19.559Z,42.44
2019-01-28T13:03:29.226Z,41.00
2019-01-28T13:05:33.950Z,42.00
2019-01-28T13:07:41.327Z,41.44
2019-01-28T13:09:51.137Z,41.00
2019-01-28T13:11:58.435Z,40.67
2019-01-28T13:14:06.587Z,41.60
2019-01-28T13:16:14.754Z,49.10
2019-01-28T13:18:24.587Z,58.73
2019-01-28T13:20:35.318Z,60.56
2019-01-28T13:22:44.915Z,52.89
2019-01-28T13:24:54.222Z,50.30
2019-01-28T13:27:04.215Z,45.89
2019-01-28T13:29:14.067Z,48.44
2019-01-28T13:31:18.926Z,36.75
2019-01-28T13:33:28.923Z,45.44
2019-01-28T13:35:34.568Z,49.00
2019-01-28T13:37:42.653Z,48.30
2019-01-28T13:39:51.722Z,50.00
2019-01-28T13:42:00.690Z,51.50
2019-01-28T13:44:09.010Z,52.11
2019-01-28T13:46:17.168Z,50.22
2019-01-28T13:48:28.010Z,49.50
2019-01-28T13:50:31.890Z,53.75
2019-01-28T13:52:36.791Z,51.00
2019-01-28T13:54:45.103Z,47.22
2019-01-28T13:56:55.922Z,49.40
2019-01-28T13:59:05.077Z,47.80
2019-01-28T14:01:10.943Z,49.00
2019-01-28T14:03:21.532Z,47.50
2019-01-28T14:05:29.779Z,45.30
2019-01-28T14:07:40.544Z,49.60
2019-01-28T14:09:51.263Z,48.30
2019-01-28T14:12:02.174Z,51.70
2019-01-28T14:14:12.343Z,48.56
2019-01-28T14:16:17.926Z,50.75
2019-01-28T14:18:27.972Z,53.00
2019-01-28T14:20:38.722Z,49.67
2019-01-28T14:22:49.744Z,51.00
2019-01-28T14:24:58.764Z,48.90
2019-01-28T14:27:02.107Z,50.00
2019-01-28T14:29:07.086Z,48.29
2019-01-28T14:31:17.186Z,47.89
2019-01-28T14:33:27.983Z,47.50
2019-01-28T14:35:36.820Z,48.00
2019-01-28T14:37:47.272Z,56.22
2019-01-28T14:39:55.434Z,53.44
2019-01-28T14:42:06.280Z,53.50
2019-01-28T14:44:16.954Z,50.40
2019-01-28T14:46:21.100Z,53.00
2019-01-28T14:48:31.842Z,54.44
2019-01-28T14:50:37.832Z,55.00
2019-01-28T14:52:45.695Z,53.78
2019-01-28T14:54:50.567Z,48.00
2019-01-28T14:56:54.611Z,52.17
2019-01-28T14:59:00.514Z,60.50
2019-01-28T15:01:11.308Z,50.10
2019-01-28T15:03:19.740Z,49.30
2019-01-28T15:05:24.914Z,58.29
2019-01-28T15:07:35.662Z,60.60
2019-01-28T15:09:46.525Z,55.60
2019-01-28T15:11:55.579Z,59.40
2019-01-28T15:14:08.083Z,60.55
2019-01-28T15:16:12.062Z,59.00
2019-01-28T15:18:17.006Z,51.50
2019-01-28T15:20:22.758Z,53.25
2019-01-28T15:22:26.895Z,63.00
2019-01-28T15:24:30.847Z,65.00
2019-01-28T15:26:35.926Z,62.43
2019-01-28T15:28:39.940Z,63.00
2019-01-28T15:30:44.065Z,66.00
2019-01-28T15:32:49.022Z,67.00
2019-01-28T15:34:58.907Z,67.73
2019-01-28T15:37:02.152Z,68.50
2019-01-28T15:39:07.644Z,72.00
2019-01-28T15:41:12.831Z,69.00
2019-01-28T15:43:17.043Z,67.40
2019-01-28T15:45:30.908Z,64.45
2019-01-28T15:47:40.595Z,63.73
2019-01-28T15:49:53.321Z,64.33
2019-01-28T15:52:02.434Z,71.33
2019-01-28T15:54:14.759Z,74.07
2019-01-28T15:56:20.425Z,79.33
2019-01-28T15:58:29.868Z,72.92
2019-01-28T16:00:38.602Z,82.12
2019-01-28T16:02:49.802Z,77.36
2019-01-28T16:05:03.579Z,81.80
2019-01-28T16:07:12.985Z,84.31
2019-01-28T16:09:30.135Z,72.10
2019-01-28T16:11:40.723Z,77.08
2019-01-28T16:13:53.307Z,72.69
2019-01-28T16:16:09.430Z,73.55
2019-01-28T16:18:21.928Z,73.62
2019-01-28T16:20:37.573Z,90.65
2019-01-28T16:23:00.395Z,84.48
2019-01-28T16:25:05.471Z,69.00
2019-01-28T16:27:10.358Z,81.80
2019-01-28T16:29:20.250Z,75.31
2019-01-28T16:31:31.062Z,74.07
2019-01-28T16:33:41.075Z,73.77
2019-01-28T16:35:45.222Z,75.80
2019-01-28T16:37:51.066Z,88.50
2019-01-28T16:39:55.227Z,82.40
2019-01-28T16:41:59.224Z,83.00
2019-01-28T16:44:07.207Z,82.18
2019-01-28T16:46:20.426Z,73.44
2019-01-28T16:48:29.659Z,70.50
2019-01-28T16:50:38.718Z,79.75
2019-01-28T16:52:42.823Z,70.60
2019-01-28T16:54:46.246Z,74.75
2019-01-28T16:56:50.171Z,76.00
2019-01-28T16:59:00.587Z,82.75
2019-01-28T17:01:09.285Z,93.45
2019-01-28T17:03:20.842Z,82.50
2019-01-28T17:05:25.821Z,84.67
2019-01-28T17:07:35.482Z,73.75
2019-01-28T17:09:38.874Z,67.50
2019-01-28T17:11:43.059Z,75.40
2019-01-28T17:13:47.453Z,77.40
2019-01-28T17:15:51.576Z,68.00
2019-01-28T17:17:55.813Z,73.00
2019-01-28T17:20:05.598Z,67.00
2019-01-28T17:22:12.634Z,69.20
2019-01-28T17:24:17.074Z,69.80
2019-01-28T17:26:27.259Z,91.82
2019-01-28T17:28:40.405Z,90.94
2019-01-28T17:30:47.690Z,85.67
2019-01-28T17:32:52.175Z,83.20
2019-01-28T17:34:56.431Z,81.00
2019-01-28T17:37:00.614Z,77.67
2019-01-28T17:39:06.360Z,75.29
2019-01-28T17:41:15.012Z,80.42
2019-01-28T17:43:29.339Z,82.07
2019-01-28T17:45:33.680Z,77.00
2019-01-28T17:47:37.382Z,71.00
2019-01-28T17:49:41.690Z,69.50
2019-01-28T17:51:45.157Z,70.60
2019-01-28T17:53:55.656Z,68.00
2019-01-28T17:56:04.862Z,75.92
2019-01-28T17:58:14.127Z,73.42
2019-01-28T18:00:29.554Z,70.62
2019-01-28T18:02:30.326Z,77.60
2019-01-28T18:04:44.387Z,71.47
2019-01-28T18:06:53.750Z,75.00
2019-01-28T18:08:57.243Z,78.00
2019-01-28T18:11:01.676Z,76.20
2019-01-28T18:13:12.546Z,76.00
2019-01-28T18:15:27.677Z,83.56
2019-01-28T18:17:32.252Z,83.50
2019-01-28T18:19:44.552Z,78.29
2019-01-28T18:21:50.082Z,84.00
2019-01-28T18:24:15.046Z,85.06
2019-01-28T18:26:29.517Z,88.71
2019-01-28T18:28:33.850Z,86.60
2019-01-28T18:30:49.435Z,81.00
2019-01-28T18:33:01.658Z,92.08
2019-01-28T18:35:07.571Z,84.60
2019-01-28T18:37:16.310Z,86.00
2019-01-28T18:39:26.652Z,77.93
2019-01-28T18:41:31.422Z,80.50
2019-01-28T18:43:43.428Z,80.27
2019-01-28T18:45:47.353Z,79.00
2019-01-28T18:47:54.610Z,70.67
2019-01-28T18:49:58.952Z,80.00
2019-01-28T18:52:15.469Z,80.05
2019-01-28T18:54:27.212Z,82.67
2019-01-28T18:56:36.277Z,70.73
2019-01-28T18:58:41.429Z,75.83
2019-01-28T19:00:57.522Z,70.89
2019-01-28T19:03:10.202Z,71.31
2019-01-28T19:05:15.207Z,75.00
2019-01-28T19:07:25.082Z,71.64
2019-01-28T19:09:29.294Z,77.00
2019-01-28T19:11:33.570Z,72.40
2019-01-28T19:13:42.521Z,74.82
2019-01-28T19:15:49.314Z,74.62
2019-01-28T19:18:28.385Z,73.89
2019-01-28T19:20:40.035Z,73.57
2019-01-28T19:22:44.151Z,76.00
2019-01-28T19:25:00.438Z,68.37
2019-01-28T19:27:05.746Z,77.00
2019-01-28T19:29:09.822Z,84.00
2019-01-28T19:31:17.279Z,74.11
2019-01-28T19:33:21.445Z,70.40
2019-01-28T19:35:25.523Z,63.00
2019-01-28T19:37:29.777Z,70.60
2019-01-28T19:39:33.239Z,66.40
2019-01-28T19:41:45.845Z,60.75
2019-01-28T19:43:50.591Z,57.80
2019-01-28T19:45:54.203Z,54.00
2019-01-28T19:48:08.220Z,55.23
2019-01-28T19:50:21.226Z,53.00
2019-01-28T19:52:26.408Z,47.25
2019-01-28T19:54:35.530Z,43.00
2019-01-28T19:56:39.026Z,49.00
2019-01-28T19:58:46.246Z,41.67
2019-01-28T20:00:53.983Z,44.22
2019-01-28T20:02:58.315Z,47.00
2019-01-28T20:05:01.883Z,47.00
2019-01-28T20:07:09.607Z,41.33
2019-01-28T20:09:19.921Z,43.00
2019-01-28T20:11:30.734Z,46.80
2019-01-28T20:13:41.695Z,47.60
2019-01-28T20:15:52.011Z,45.46
2019-01-28T20:18:02.220Z,48.67
2019-01-28T20:20:13.214Z,37.25
2019-01-28T20:22:20.875Z,43.67
2019-01-28T20:24:25.285Z,44.00
2019-01-28T20:26:34.585Z,39.38
2019-01-28T20:28:39.528Z,42.75
2019-01-28T20:30:47.235Z,35.56
2019-01-28T20:32:57.170Z,42.89
2019-01-28T20:35:06.844Z,45.10
2019-01-28T20:37:15.574Z,41.33
2019-01-28T20:39:22.774Z,41.22
2019-01-28T20:41:30.458Z,36.44
2019-01-28T20:43:38.125Z,43.00
2019-01-28T20:45:46.599Z,41.00
2019-01-28T20:47:52.038Z,39.00
2019-01-28T20:50:01.228Z,44.11
2019-01-28T20:52:05.503Z,40.33
2019-01-28T20:54:13.068Z,39.33
2019-01-28T20:56:22.471Z,41.50
2019-01-28T20:58:30.007Z,35.89
2019-01-28T21:00:39.541Z,44.00
2019-01-28T21:02:48.961Z,46.25
2019-01-28T21:04:58.235Z,39.67
2019-01-28T21:07:06.478Z,35.75
2019-01-28T21:09:14.140Z,42.11
2019-01-28T21:11:20.832Z,45.12
2019-01-28T21:13:28.536Z,38.78
2019-01-28T21:15:35.910Z,34.33
2019-01-28T21:17:45.962Z,43.00
2019-01-28T21:19:53.725Z,38.44
2019-01-28T21:22:03.928Z,38.44
2019-01-28T21:24:14.112Z,39.11
2019-01-28T21:26:21.938Z,42.67
2019-01-28T21:28:32.082Z,42.67
2019-01-28T21:30:43.083Z,55.00
2019-01-28T21:32:50.786Z,40.11
2019-01-28T21:34:58.350Z,43.89
2019-01-28T21:37:08.564Z,37.13
2019-01-28T21:39:17.995Z,40.11
2019-01-28T21:41:28.107Z,37.22
2019-01-28T21:43:35.822Z,36.89
2019-01-28T21:45:43.467Z,40.33
2019-01-28T21:47:51.666Z,36.22
2019-01-28T21:49:59.061Z,40.63
2019-01-28T21:52:06.799Z,43.67
2019-01-28T21:54:14.478Z,39.00
2019-01-28T21:56:23.943Z,37.33
2019-01-28T21:58:33.264Z,34.75
2019-01-28T22:00:42.349Z,43.30
2019-01-28T22:02:47.325Z,40.25
2019-01-28T22:04:58.109Z,37.60
2019-01-28T22:07:04.258Z,44.75
2019-01-28T22:09:11.098Z,41.25
2019-01-28T22:11:15.970Z,37.67
2019-01-28T22:13:23.499Z,34.22
2019-01-28T22:15:33.766Z,44.00
2019-01-28T22:17:42.369Z,33.13
2019-01-28T22:19:51.063Z,33.88
2019-01-28T22:21:59.615Z,32.00
2019-01-28T22:24:08.159Z,32.00
2019-01-28T22:26:15.166Z,32.13
2019-01-28T22:28:22.763Z,36.78
2019-01-28T22:30:26.995Z,34.00
2019-01-28T22:32:33.156Z,32.25
2019-01-28T22:34:47.681Z,31.37
2019-01-28T22:36:51.879Z,32.00
2019-01-28T22:38:59.165Z,34.13
2019-01-28T22:41:08.094Z,33.50
2019-01-28T22:43:16.610Z,34.88
2019-01-28T22:45:21.062Z,32.00
2019-01-28T22:47:29.360Z,31.50
2019-01-28T22:49:33.622Z,31.75
2019-01-28T22:51:42.002Z,31.37
2019-01-28T22:53:45.527Z,32.00
2019-01-28T22:55:49.639Z,29.00
2019-01-28T22:57:56.061Z,27.50
2019-01-28T23:00:09.091Z,28.11
2019-01-28T23:02:17.966Z,30.78
2019-01-28T23:04:24.432Z,29.00
2019-01-28T23:06:31.166Z,31.37
2019-01-28T23:08:39.978Z,29.56
2019-01-28T23:10:46.539Z,29.75
2019-01-28T23:12:54.765Z,28.00
2019-01-28T23:14:58.670Z,30.00
2019-01-28T23:17:09.327Z,30.00
2019-01-28T23:19:16.586Z,31.00
2019-01-28T23:21:23.898Z,30.78
2019-01-28T23:23:32.925Z,29.00
2019-01-28T23:25:41.718Z,28.33
2019-01-28T23:27:48.239Z,30.00
2019-01-28T23:29:58.029Z,28.56
2019-01-28T23:32:04.415Z,29.63
2019-01-28T23:34:15.079Z,27.75
2019-01-28T23:36:21.488Z,29.25
2019-01-28T23:38:30.536Z,29.67
2019-01-28T23:40:38.545Z,31.00
2019-01-28T23:42:46.618Z,31.50
2019-01-28T23:44:53.762Z,29.33
2019-01-28T23:47:00.237Z,30.00
2019-01-28T23:49:06.635Z,31.75
2019-01-28T23:51:15.547Z,31.78
2019-01-28T23:53:22.730Z,31.00
2019-01-28T23:55:31.726Z,30.78
2019-01-28T23:57:40.646Z,31.00
2019-01-28T23:59:47.914Z,31.67
